KSAR/SAR METAR and TAF weather

Enter ICAO airport designator
Station Type Date Time Source
KSAR METAR 2020/10/29 17:42 UTC NOAA

KSAR 291742Z AUTO 35014G19KT 10SM OVC055 07/04 A2981 RMK AO2


Station Type Date Time Source
KSAR Decoded METAR 2020/10/29 17:42 UTC NOAA

Sparta, Sparta Community-Hunter Field Airport, IL, United States (KSAR) 38-08-56N 089-41-55W
Oct 29, 2020 - 01:42 PM EDT / 2020.10.29 1742 UTC
Wind: from the N (350 degrees) at 16 MPH (14 KT) gusting to 22 MPH (19 KT):0
Visibility: 10 mile(s):0
Sky conditions: overcast
Temperature: 44 F (7 C)
Dew Point: 39 F (4 C)
Relative Humidity: 81%
Pressure (altimeter): 29.81 in. Hg (1009 hPa)
ob: KSAR 291742Z AUTO 35014G19KT 10SM OVC055 07/04 A2981 RMK AO2
cycle: 17

Station Type Date Time Source
KSAR TAF UTC NOAA

Error!

Example: see airport list